Time;durP1;ratioP1;P1;durP2;ratioP2;P2;SDS_P1;SDS_P2;PMS_P1;PMS_P2;Temp;Humidity;BMP_temperature;BMP_pressure;BME280_temperature;BME280_humidity;BME280_pressure;Samples;Min_cycle;Max_cycle;Signal;HPM_P1;HPM_P2
2023/05/01 00:00:46;;;;;;;8.57;4.53;;;12.10;91.60;;;;;;2090703;28;20108;-73
2023/05/01 00:01:47;;;;;;;10.93;4.63;;;12.10;91.60;;;;;;2094309;28;20044;-73
2023/05/01 00:02:47;;;;;;;7.35;4.10;;;12.10;91.50;;;;;;2102282;28;20025;-73
2023/05/01 00:03:48;;;;;;;8.02;3.70;;;12.10;91.50;;;;;;2101252;28;20503;-73
2023/05/01 00:04:48;;;;;;;6.68;3.80;;;12.10;91.40;;;;;;2094553;28;20020;-73
2023/05/01 00:05:49;;;;;;;7.80;4.13;;;12.10;91.10;;;;;;2091960;28;20849;-72
2023/05/01 00:06:49;;;;;;;6.10;3.65;;;12.10;91.40;;;;;;2093973;28;20033;-72
2023/05/01 00:07:50;;;;;;;8.40;3.63;;;12.10;91.40;;;;;;2092923;28;20027;-73
2023/05/01 00:08:50;;;;;;;4.72;3.20;;;12.10;91.50;;;;;;2093500;28;20032;-73
2023/05/01 00:09:51;;;;;;;7.13;4.53;;;12.10;91.40;;;;;;2094234;28;20074;-73
2023/05/01 00:10:52;;;;;;;7.40;4.15;;;12.10;91.70;;;;;;2093604;28;20460;-73
2023/05/01 00:11:52;;;;;;;4.70;3.78;;;12.10;91.60;;;;;;2091644;28;20029;-73
2023/05/01 00:12:52;;;;;;;7.40;3.88;;;12.10;91.50;;;;;;2094254;28;20028;-73
2023/05/01 00:13:53;;;;;;;6.10;3.85;;;12.10;91.40;;;;;;2094408;28;20151;-73
2023/05/01 00:14:54;;;;;;;6.00;3.88;;;12.10;91.50;;;;;;2094054;28;20047;-73
2023/05/01 00:15:54;;;;;;;7.50;3.92;;;12.10;91.70;;;;;;2090648;28;20020;-73
2023/05/01 00:16:55;;;;;;;4.68;4.07;;;12.10;91.80;;;;;;2094956;28;20489;-73
2023/05/01 00:17:56;;;;;;;7.85;4.55;;;12.10;92.10;;;;;;2093707;28;20500;-73
2023/05/01 00:18:56;;;;;;;6.22;3.58;;;12.10;92.30;;;;;;2092129;28;20021;-73
2023/05/01 00:19:57;;;;;;;6.15;3.63;;;12.10;92.30;;;;;;2091685;28;20437;-73
2023/05/01 00:20:58;;;;;;;6.53;3.83;;;12.10;92.00;;;;;;2090627;28;20021;-73
2023/05/01 00:21:58;;;;;;;5.75;3.58;;;12.10;91.90;;;;;;2093570;28;20111;-73
2023/05/01 00:22:59;;;;;;;8.45;3.95;;;12.10;91.80;;;;;;2094573;28;20028;-72
2023/05/01 00:23:59;;;;;;;8.18;4.22;;;12.00;91.80;;;;;;2092822;28;20112;-73
2023/05/01 00:25:00;;;;;;;7.63;3.83;;;12.00;91.70;;;;;;2092444;28;20036;-73
2023/05/01 00:26:00;;;;;;;7.18;4.15;;;12.00;92.00;;;;;;2094867;28;20075;-73
2023/05/01 00:27:02;;;;;;;7.00;4.03;;;12.00;92.20;;;;;;2093121;28;20771;-73
2023/05/01 00:28:02;;;;;;;6.00;4.28;;;12.00;92.00;;;;;;2093510;28;20058;-73
2023/05/01 00:29:03;;;;;;;7.45;4.65;;;12.00;92.30;;;;;;2094176;28;20240;-72
2023/05/01 00:30:04;;;;;;;9.63;4.25;;;12.00;92.70;;;;;;2094109;28;20039;-72
2023/05/01 00:31:05;;;;;;;8.60;4.03;;;12.00;92.70;;;;;;2093139;28;20033;-73
2023/05/01 00:32:05;;;;;;;5.07;3.95;;;11.90;92.80;;;;;;2094368;28;20033;-73
2023/05/01 00:33:06;;;;;;;7.95;4.30;;;11.90;92.90;;;;;;2093328;28;20020;-73
2023/05/01 00:34:07;;;;;;;6.85;4.10;;;11.80;93.00;;;;;;2093419;28;20051;-73
2023/05/01 00:35:08;;;;;;;7.53;4.10;;;11.80;93.20;;;;;;2094497;28;20017;-73
2023/05/01 00:36:09;;;;;;;6.18;4.10;;;11.80;93.20;;;;;;2092619;28;20075;-72
2023/05/01 00:37:10;;;;;;;7.90;3.95;;;11.90;93.20;;;;;;2092345;28;20028;-72
2023/05/01 00:38:10;;;;;;;4.72;3.30;;;11.80;93.10;;;;;;2092541;28;20055;-72
2023/05/01 00:39:11;;;;;;;5.57;3.70;;;11.80;92.80;;;;;;2093430;28;20100;-72
2023/05/01 00:40:11;;;;;;;4.82;3.33;;;11.80;92.80;;;;;;2089184;28;20027;-72
2023/05/01 00:41:12;;;;;;;6.97;4.20;;;11.80;92.80;;;;;;2093596;28;20506;-72
2023/05/01 00:42:13;;;;;;;7.35;3.88;;;11.70;93.10;;;;;;2091619;28;20032;-72
2023/05/01 00:43:13;;;;;;;6.30;4.45;;;11.70;93.10;;;;;;2093579;28;20035;-72
2023/05/01 00:44:15;;;;;;;5.95;4.05;;;11.70;93.30;;;;;;2093842;28;20119;-72
2023/05/01 00:45:16;;;;;;;6.88;4.38;;;11.70;93.20;;;;;;2095631;28;20040;-72
2023/05/01 00:46:17;;;;;;;4.00;3.30;;;11.70;93.30;;;;;;2092134;28;20048;-72
2023/05/01 00:47:18;;;;;;;6.57;3.63;;;11.70;93.30;;;;;;2094859;28;20461;-72
2023/05/01 00:48:19;;;;;;;8.38;3.70;;;11.60;93.20;;;;;;2093276;28;20032;-72
2023/05/01 00:49:19;;;;;;;5.68;3.97;;;11.60;93.40;;;;;;2093120;28;20021;-72
2023/05/01 00:50:20;;;;;;;4.68;3.22;;;11.60;93.70;;;;;;2090770;28;20082;-73
2023/05/01 00:51:21;;;;;;;6.53;3.65;;;11.60;93.30;;;;;;2092753;28;20032;-73
2023/05/01 00:52:23;;;;;;;8.85;3.83;;;11.60;93.40;;;;;;2092839;28;20036;-72
2023/05/01 00:53:25;;;;;;;4.82;3.38;;;11.50;94.10;;;;;;2093238;28;20029;-72
2023/05/01 00:54:27;;;;;;;7.40;4.40;;;11.50;94.40;;;;;;2092321;28;20025;-72
2023/05/01 00:55:27;;;;;;;6.10;3.53;;;11.50;94.40;;;;;;2093494;28;20012;-72
2023/05/01 00:56:30;;;;;;;5.85;3.78;;;11.50;94.40;;;;;;2091889;28;20020;-72
2023/05/01 00:57:31;;;;;;;5.57;3.80;;;11.50;94.50;;;;;;2091321;28;20024;-72
2023/05/01 00:58:32;;;;;;;5.50;4.00;;;11.40;94.40;;;;;;2091902;28;20530;-72
2023/05/01 00:59:32;;;;;;;5.93;3.78;;;11.40;94.90;;;;;;2092289;28;20404;-73
2023/05/01 01:00:33;;;;;;;7.57;3.72;;;11.40;95.00;;;;;;2092351;28;20024;-72
2023/05/01 01:01:34;;;;;;;6.20;3.80;;;11.40;94.90;;;;;;2091706;28;20028;-72
2023/05/01 01:02:36;;;;;;;7.15;4.60;;;11.30;95.10;;;;;;2093138;28;20021;-72
2023/05/01 01:03:36;;;;;;;7.22;4.40;;;11.30;95.60;;;;;;2094791;28;20641;-72
2023/05/01 01:04:37;;;;;;;8.48;4.85;;;11.30;96.20;;;;;;2093779;28;20021;-72
2023/05/01 01:05:45;;;;;;;5.50;4.13;;;11.30;96.30;;;;;;2092039;28;20035;-72
2023/05/01 01:07:01;;;;;;;7.35;4.32;;;11.30;96.10;;;;;;2093442;28;20576;-72
2023/05/01 01:08:16;;;;;;;7.53;4.22;;;11.20;96.20;;;;;;2092253;28;20155;-72
2023/05/01 01:09:36;;;;;;;6.68;4.35;;;11.20;96.30;;;;;;2091282;28;20024;-72
2023/05/01 01:10:55;;;;;;;6.32;4.72;;;11.20;96.60;;;;;;2091000;28;20027;-71
2023/05/01 01:12:02;;;;;;;4.15;3.67;;;11.10;97.20;;;;;;2094083;28;20093;-72
2023/05/01 01:13:10;;;;;;;8.25;3.92;;;11.10;96.70;;;;;;2091863;28;20028;-72
2023/05/01 01:14:18;;;;;;;4.50;3.90;;;11.10;96.20;;;;;;2089038;28;20063;-72
2023/05/01 01:15:52;;;;;;;8.50;3.88;;;11.00;96.30;;;;;;2095502;28;20784;-72
2023/05/01 01:16:58;;;;;;;5.70;4.13;;;11.00;97.00;;;;;;2091734;28;20029;-72
2023/05/01 01:18:27;;;;;;;5.93;3.70;;;11.00;97.00;;;;;;2092501;28;20391;-72
2023/05/01 01:19:30;;;;;;;7.65;4.30;;;11.00;97.30;;;;;;2091193;28;20514;-72
2023/05/01 01:20:52;;;;;;;4.95;3.72;;;10.90;97.30;;;;;;2091271;28;20024;-72
2023/05/01 01:21:59;;;;;;;6.07;4.15;;;10.80;97.60;;;;;;2092973;28;20021;-72
2023/05/01 01:23:21;;;;;;;6.60;4.25;;;10.80;97.50;;;;;;2093006;28;20044;-72
2023/05/01 01:24:43;;;;;;;6.18;3.90;;;10.80;97.90;;;;;;2093624;28;20025;-72
2023/05/01 01:26:21;;;;;;;6.03;4.18;;;10.80;97.80;;;;;;2092337;28;20033;-72
2023/05/01 01:27:43;;;;;;;7.32;4.35;;;10.70;98.90;;;;;;2092658;28;20093;-72
2023/05/01 01:29:22;;;;;;;5.97;3.70;;;10.70;99.60;;;;;;2091331;28;20066;-72
2023/05/01 01:30:44;;;;;;;5.70;3.90;;;10.60;99.70;;;;;;2092100;28;20025;-72
2023/05/01 01:32:15;;;;;;;5.22;3.95;;;10.60;99.40;;;;;;2091317;28;20543;-72
2023/05/01 01:33:34;;;;;;;5.55;3.60;;;10.60;99.40;;;;;;2094704;28;21434;-72
2023/05/01 01:34:40;;;;;;;6.20;4.05;;;10.50;99.10;;;;;;2092652;28;20041;-72
2023/05/01 01:35:53;;;;;;;6.32;4.03;;;10.50;99.30;;;;;;2094929;28;20431;-72
2023/05/01 01:37:06;;;;;;;7.00;3.80;;;10.50;99.30;;;;;;2091866;28;20186;-72
2023/05/01 01:38:18;;;;;;;11.48;4.28;;;10.40;99.60;;;;;;2092204;28;20024;-72
2023/05/01 01:39:42;;;;;;;5.97;4.35;;;10.40;99.80;;;;;;2091697;28;20098;-72
2023/05/01 01:40:57;;;;;;;6.57;4.40;;;10.40;99.80;;;;;;2091110;28;20071;-72
2023/05/01 01:41:59;;;;;;;5.65;3.40;;;10.40;99.90;;;;;;2095797;28;20466;-72
2023/05/01 01:43:09;;;;;;;5.97;3.75;;;10.40;99.90;;;;;;2093689;28;20108;-72
2023/05/01 01:44:20;;;;;;;9.25;5.10;;;10.30;99.90;;;;;;2092730;28;20078;-72
2023/05/01 01:45:22;;;;;;;5.63;4.38;;;10.30;99.90;;;;;;2092588;28;20025;-72
2023/05/01 01:46:25;;;;;;;4.38;3.53;;;10.30;99.90;;;;;;2091004;28;20025;-72
2023/05/01 01:47:30;;;;;;;7.88;4.40;;;10.30;99.90;;;;;;2091853;28;20025;-72
2023/05/01 01:48:34;;;;;;;5.20;4.32;;;10.30;99.90;;;;;;2092013;28;20032;-71
2023/05/01 01:49:40;;;;;;;6.10;4.00;;;10.20;99.90;;;;;;2092660;28;20036;-71
2023/05/01 01:50:42;;;;;;;6.40;4.32;;;10.30;99.90;;;;;;2091347;28;20024;-71
2023/05/01 01:51:46;;;;;;;7.70;4.30;;;10.20;99.90;;;;;;2093196;28;20025;-71
2023/05/01 01:52:50;;;;;;;6.20;4.10;;;10.20;99.90;;;;;;2090309;28;20052;-71
2023/05/01 01:53:55;;;;;;;9.00;4.85;;;10.20;99.90;;;;;;2091916;28;20833;-71
2023/05/01 01:55:04;;;;;;;7.78;4.03;;;10.20;99.90;;;;;;2092849;28;20487;-71
2023/05/01 01:56:06;;;;;;;6.97;4.13;;;10.20;99.90;;;;;;2092906;28;20586;-71
2023/05/01 01:57:10;;;;;;;6.30;4.43;;;10.20;99.90;;;;;;2091643;28;20508;-71
2023/05/01 01:58:12;;;;;;;6.45;4.35;;;10.20;99.90;;;;;;2091576;28;20021;-71
2023/05/01 01:59:14;;;;;;;9.25;4.15;;;10.10;99.90;;;;;;2091578;28;20029;-71
2023/05/01 02:00:16;;;;;;;6.32;4.70;;;10.10;99.90;;;;;;2091490;28;20028;-71
2023/05/01 02:01:19;;;;;;;5.65;4.00;;;10.10;99.90;;;;;;2091585;28;20025;-71
2023/05/01 02:02:21;;;;;;;4.85;3.67;;;10.10;99.90;;;;;;2091303;28;20025;-71
2023/05/01 02:03:23;;;;;;;6.57;4.25;;;10.10;99.90;;;;;;2090706;28;20368;-71
2023/05/01 02:04:26;;;;;;;4.97;3.90;;;10.10;99.90;;;;;;2091698;28;20035;-71
2023/05/01 02:05:27;;;;;;;5.00;4.18;;;10.10;99.90;;;;;;2092104;28;20024;-71
2023/05/01 02:06:30;;;;;;;5.45;4.30;;;10.00;99.90;;;;;;2091610;28;20033;-71
2023/05/01 02:07:31;;;;;;;4.80;3.78;;;10.10;99.90;;;;;;2093499;28;20055;-71
2023/05/01 02:08:34;;;;;;;6.10;4.05;;;10.00;99.90;;;;;;2092799;28;20024;-71
2023/05/01 02:09:37;;;;;;;6.30;4.25;;;10.00;99.90;;;;;;2092218;28;20047;-71
2023/05/01 02:10:39;;;;;;;7.07;4.35;;;10.00;99.90;;;;;;2090555;28;20025;-71
2023/05/01 02:11:40;;;;;;;5.85;4.22;;;10.00;99.90;;;;;;2092225;28;20031;-71
2023/05/01 02:12:44;;;;;;;6.63;4.05;;;10.00;99.90;;;;;;2090246;28;20028;-71
2023/05/01 02:13:46;;;;;;;6.20;4.05;;;10.00;99.90;;;;;;2091447;28;20070;-71
2023/05/01 02:14:48;;;;;;;6.15;3.97;;;10.00;99.90;;;;;;2095072;28;20056;-71
2023/05/01 02:15:49;;;;;;;4.40;3.72;;;10.00;99.90;;;;;;2090298;28;20094;-71
2023/05/01 02:16:51;;;;;;;4.60;4.07;;;10.00;99.90;;;;;;2091647;28;20023;-71
2023/05/01 02:17:52;;;;;;;5.32;4.47;;;10.00;99.90;;;;;;2090653;28;20020;-71
2023/05/01 02:18:54;;;;;;;4.72;4.28;;;9.90;99.90;;;;;;2091451;28;20023;-71
2023/05/01 02:19:57;;;;;;;5.10;3.78;;;10.00;99.90;;;;;;2092007;28;20020;-71
2023/05/01 02:20:58;;;;;;;6.85;4.15;;;9.90;99.90;;;;;;2092792;28;20024;-71
2023/05/01 02:22:01;;;;;;;7.57;4.60;;;10.00;99.90;;;;;;2090882;28;20407;-71
2023/05/01 02:23:02;;;;;;;4.18;3.47;;;10.00;99.90;;;;;;2095096;28;20024;-71
2023/05/01 02:24:04;;;;;;;4.97;4.50;;;10.00;99.90;;;;;;2091417;28;20052;-71
2023/05/01 02:25:09;;;;;;;8.15;4.63;;;9.90;99.90;;;;;;2094274;28;20404;-71
2023/05/01 02:26:15;;;;;;;5.05;4.53;;;10.00;99.90;;;;;;2095286;28;20395;-71
2023/05/01 02:27:20;;;;;;;5.40;3.67;;;10.00;99.90;;;;;;2086436;28;20104;-71
2023/05/01 02:28:23;;;;;;;7.40;3.97;;;10.00;99.90;;;;;;2094235;28;20047;-71
2023/05/01 02:29:24;;;;;;;5.28;4.07;;;10.00;99.90;;;;;;2094966;28;20024;-71
2023/05/01 02:30:25;;;;;;;6.72;3.85;;;9.90;99.90;;;;;;2092569;28;20029;-71
2023/05/01 02:31:25;;;;;;;8.20;4.35;;;9.90;99.90;;;;;;2091813;28;20036;-71
2023/05/01 02:32:27;;;;;;;7.78;4.72;;;9.90;99.90;;;;;;2092765;28;20350;-71
2023/05/01 02:33:27;;;;;;;6.57;4.47;;;10.00;99.90;;;;;;2092411;28;20490;-71
2023/05/01 02:34:28;;;;;;;5.95;4.55;;;10.00;99.90;;;;;;2095018;28;20102;-71
2023/05/01 02:35:28;;;;;;;5.85;4.22;;;10.00;99.90;;;;;;2096072;28;20028;-71
2023/05/01 02:36:30;;;;;;;4.68;4.13;;;10.00;99.90;;;;;;2093172;28;20029;-71
2023/05/01 02:37:31;;;;;;;6.03;4.65;;;10.00;99.90;;;;;;2091813;28;20079;-71
2023/05/01 02:38:32;;;;;;;5.13;4.00;;;10.00;99.90;;;;;;2090894;28;20024;-71
2023/05/01 02:39:33;;;;;;;8.63;4.20;;;10.00;99.90;;;;;;2091100;28;20045;-71
2023/05/01 02:40:37;;;;;;;6.88;4.28;;;10.00;99.90;;;;;;2090241;28;20135;-71
2023/05/01 02:41:39;;;;;;;6.32;3.85;;;10.00;99.90;;;;;;2090738;28;20025;-71
2023/05/01 02:42:42;;;;;;;6.10;3.75;;;10.10;99.90;;;;;;2091707;28;20469;-71
2023/05/01 02:43:46;;;;;;;4.70;4.18;;;10.00;99.90;;;;;;2093709;28;20090;-71
2023/05/01 02:44:55;;;;;;;9.45;4.55;;;10.00;99.90;;;;;;2091782;28;20035;-71
2023/05/01 02:45:57;;;;;;;6.38;4.35;;;10.00;99.90;;;;;;2090155;28;20140;-71
2023/05/01 02:47:01;;;;;;;6.75;4.13;;;10.00;99.90;;;;;;2089583;28;20583;-71
2023/05/01 02:48:04;;;;;;;6.45;4.43;;;10.00;99.90;;;;;;2091869;28;20543;-71
2023/05/01 02:49:05;;;;;;;7.05;4.75;;;10.00;99.90;;;;;;2091975;28;20056;-71
2023/05/01 02:50:07;;;;;;;10.13;5.28;;;10.00;99.90;;;;;;2089634;28;20029;-71
2023/05/01 02:51:08;;;;;;;7.68;5.22;;;10.10;99.90;;;;;;2092510;28;20028;-71
2023/05/01 02:52:10;;;;;;;7.05;4.90;;;10.10;99.90;;;;;;2092766;28;20043;-71
2023/05/01 02:53:12;;;;;;;7.60;5.43;;;10.10;99.90;;;;;;2092794;28;20035;-71
2023/05/01 02:54:13;;;;;;;6.30;4.80;;;10.10;99.90;;;;;;2090651;28;20099;-71
2023/05/01 02:55:14;;;;;;;8.70;5.28;;;10.10;99.90;;;;;;2091161;28;20025;-71
2023/05/01 02:56:15;;;;;;;9.32;4.90;;;10.10;99.90;;;;;;2090315;28;20033;-71
2023/05/01 02:57:16;;;;;;;10.55;5.22;;;10.20;99.90;;;;;;2092697;28;20092;-71
2023/05/01 02:58:18;;;;;;;8.13;5.35;;;10.10;99.90;;;;;;2092201;28;20009;-71
2023/05/01 02:59:19;;;;;;;8.40;4.85;;;10.20;99.90;;;;;;2089478;28;20116;-71
2023/05/01 03:00:19;;;;;;;8.57;6.10;;;10.20;99.90;;;;;;2087782;28;20025;-71
2023/05/01 03:01:20;;;;;;;6.00;4.93;;;10.20;99.90;;;;;;2092825;28;20049;-71
2023/05/01 03:02:21;;;;;;;10.65;4.85;;;10.20;99.90;;;;;;2092927;28;20408;-71
2023/05/01 03:03:21;;;;;;;6.35;5.00;;;10.20;99.90;;;;;;2092542;28;20038;-71
2023/05/01 03:04:22;;;;;;;6.63;5.25;;;10.20;99.90;;;;;;2093022;28;20036;-71
2023/05/01 03:05:22;;;;;;;8.35;5.20;;;10.20;99.90;;;;;;2091728;28;20025;-71
2023/05/01 03:06:23;;;;;;;5.95;4.82;;;10.20;99.90;;;;;;2092246;28;20033;-71
2023/05/01 03:07:23;;;;;;;6.60;4.60;;;10.20;99.90;;;;;;2093417;28;20483;-71
2023/05/01 03:08:24;;;;;;;7.22;4.88;;;10.30;99.90;;;;;;2091371;28;20094;-71
2023/05/01 03:09:25;;;;;;;10.77;6.07;;;10.30;99.90;;;;;;2093250;28;20696;-71
2023/05/01 03:10:25;;;;;;;6.97;4.65;;;10.30;99.90;;;;;;2092615;28;20036;-71
2023/05/01 03:11:26;;;;;;;9.98;4.82;;;10.30;99.90;;;;;;2091809;28;20016;-71
2023/05/01 03:12:26;;;;;;;7.28;4.78;;;10.30;99.90;;;;;;2092034;28;20021;-71
2023/05/01 03:13:27;;;;;;;6.20;5.18;;;10.30;99.90;;;;;;2091927;28;20016;-71
2023/05/01 03:14:28;;;;;;;6.18;4.88;;;10.30;99.90;;;;;;2092997;28;20115;-71
2023/05/01 03:15:28;;;;;;;5.50;4.43;;;10.30;99.90;;;;;;2094957;28;20024;-71
2023/05/01 03:16:29;;;;;;;12.98;5.70;;;10.30;99.90;;;;;;2093767;28;20020;-71
2023/05/01 03:17:29;;;;;;;6.10;5.25;;;10.30;99.90;;;;;;2095206;28;20103;-71
2023/05/01 03:18:30;;;;;;;10.13;5.88;;;10.30;99.90;;;;;;2096258;28;20051;-71
2023/05/01 03:19:31;;;;;;;8.40;5.65;;;10.30;99.90;;;;;;2092950;28;20043;-71
2023/05/01 03:20:31;;;;;;;11.95;6.28;;;10.30;99.90;;;;;;2093809;28;20827;-71
2023/05/01 03:21:32;;;;;;;9.40;5.95;;;10.30;99.90;;;;;;2097655;28;20040;-71
2023/05/01 03:22:33;;;;;;;11.02;5.82;;;10.40;99.90;;;;;;2095160;28;20021;-71
2023/05/01 03:23:33;;;;;;;9.57;6.22;;;10.40;99.90;;;;;;2094728;28;20051;-71
2023/05/01 03:24:34;;;;;;;9.50;6.20;;;10.30;99.90;;;;;;2094239;28;20055;-71
2023/05/01 03:25:36;;;;;;;10.52;6.18;;;10.40;99.90;;;;;;2093337;28;20539;-71
2023/05/01 03:26:36;;;;;;;8.57;5.78;;;10.30;99.90;;;;;;2096037;28;20033;-71
2023/05/01 03:27:37;;;;;;;8.77;5.78;;;10.40;99.90;;;;;;2094817;28;20024;-71
2023/05/01 03:28:37;;;;;;;10.23;5.55;;;10.30;99.90;;;;;;2094285;28;20098;-71
2023/05/01 03:29:38;;;;;;;10.75;5.63;;;10.40;99.90;;;;;;2091419;28;20104;-71
2023/05/01 03:30:38;;;;;;;8.55;5.25;;;10.40;99.90;;;;;;2093576;28;20484;-71
2023/05/01 03:31:39;;;;;;;10.73;6.25;;;10.40;99.90;;;;;;2092292;28;20457;-71
2023/05/01 03:32:39;;;;;;;11.05;5.45;;;10.40;99.90;;;;;;2093404;28;20031;-71
2023/05/01 03:33:40;;;;;;;5.88;4.50;;;10.40;99.90;;;;;;2094139;28;20722;-71
2023/05/01 03:34:40;;;;;;;8.65;5.65;;;10.40;99.90;;;;;;2094783;28;20032;-71
2023/05/01 03:35:41;;;;;;;10.55;6.78;;;10.40;99.90;;;;;;2092992;28;20112;-71
2023/05/01 03:36:41;;;;;;;7.95;5.90;;;10.40;99.90;;;;;;2093323;28;20048;-71
2023/05/01 03:37:42;;;;;;;7.13;5.07;;;10.40;99.90;;;;;;2091529;28;20044;-71
2023/05/01 03:38:42;;;;;;;5.90;5.13;;;10.40;99.90;;;;;;2094360;28;20132;-71
2023/05/01 03:39:43;;;;;;;6.95;5.78;;;10.40;99.90;;;;;;2091908;28;20041;-71
2023/05/01 03:40:44;;;;;;;8.85;5.13;;;10.40;99.90;;;;;;2094363;28;20024;-71
2023/05/01 03:41:44;;;;;;;11.05;5.90;;;10.40;99.90;;;;;;2092132;28;20028;-71
2023/05/01 03:42:45;;;;;;;9.90;5.63;;;10.40;99.90;;;;;;2093982;28;20032;-71
2023/05/01 03:43:45;;;;;;;10.70;6.03;;;10.40;99.90;;;;;;2093330;28;20447;-71
2023/05/01 03:44:46;;;;;;;7.38;5.82;;;10.50;99.90;;;;;;2091976;28;20029;-71
2023/05/01 03:45:47;;;;;;;8.30;5.90;;;10.40;99.90;;;;;;2091871;28;20017;-71
2023/05/01 03:46:47;;;;;;;7.47;5.57;;;10.50;99.90;;;;;;2093010;28;20492;-71
2023/05/01 03:47:48;;;;;;;8.63;5.70;;;10.50;99.90;;;;;;2093713;28;20069;-71
2023/05/01 03:48:48;;;;;;;7.97;5.40;;;10.50;99.90;;;;;;2094128;28;20020;-71
2023/05/01 03:49:49;;;;;;;10.27;6.35;;;10.50;99.90;;;;;;2098003;28;20123;-71
2023/05/01 03:50:50;;;;;;;12.25;6.70;;;10.40;99.90;;;;;;2094463;28;20021;-71
2023/05/01 03:51:51;;;;;;;12.82;5.85;;;10.50;99.90;;;;;;2094550;28;20035;-71
2023/05/01 03:52:51;;;;;;;8.95;5.88;;;10.50;99.90;;;;;;2094501;28;20032;-71
2023/05/01 03:53:55;;;;;;;9.38;5.30;;;10.40;99.90;;;;;;2093944;28;20415;-71
2023/05/01 03:54:56;;;;;;;9.95;5.78;;;10.40;99.90;;;;;;2092837;28;21574;-71
2023/05/01 03:55:56;;;;;;;9.88;5.40;;;10.40;99.90;;;;;;2093601;28;20043;-71
2023/05/01 03:56:57;;;;;;;7.22;5.25;;;10.50;99.90;;;;;;2093405;28;20035;-71
2023/05/01 03:57:58;;;;;;;11.10;6.07;;;10.40;99.90;;;;;;2095717;28;20020;-71
2023/05/01 03:58:59;;;;;;;7.80;5.47;;;10.40;99.90;;;;;;2092045;28;20027;-71
2023/05/01 03:59:59;;;;;;;7.32;5.30;;;10.50;99.90;;;;;;2092216;28;20111;-71
2023/05/01 04:01:01;;;;;;;5.32;3.90;;;10.50;99.90;;;;;;2093126;28;20017;-71
2023/05/01 04:02:03;;;;;;;8.60;5.40;;;10.50;99.90;;;;;;2092653;28;20383;-71
2023/05/01 04:03:04;;;;;;;12.38;5.38;;;10.50;99.90;;;;;;2093041;28;20484;-71
2023/05/01 04:04:05;;;;;;;7.05;4.95;;;10.50;99.90;;;;;;2094085;28;20384;-71
2023/05/01 04:05:06;;;;;;;9.25;4.85;;;10.50;99.90;;;;;;2094045;28;20021;-71
2023/05/01 04:06:07;;;;;;;10.48;6.47;;;10.50;99.90;;;;;;2094373;28;20029;-71
2023/05/01 04:07:08;;;;;;;8.35;5.43;;;10.50;99.90;;;;;;2094363;28;20135;-71
2023/05/01 04:08:08;;;;;;;8.43;5.38;;;10.50;99.90;;;;;;2092980;28;20047;-71
2023/05/01 04:09:09;;;;;;;9.05;5.45;;;10.50;99.90;;;;;;2093231;28;20028;-71
2023/05/01 04:10:10;;;;;;;6.75;5.70;;;10.50;99.90;;;;;;2094160;28;20104;-71
2023/05/01 04:11:10;;;;;;;12.35;5.85;;;10.50;99.90;;;;;;2093929;28;20025;-71
2023/05/01 04:12:11;;;;;;;10.73;6.35;;;10.50;99.90;;;;;;2094774;28;20023;-71
2023/05/01 04:13:12;;;;;;;9.65;6.05;;;10.50;99.90;;;;;;2094036;28;20191;-71
2023/05/01 04:14:12;;;;;;;9.32;6.03;;;10.50;99.90;;;;;;2092537;28;20118;-71
2023/05/01 04:15:13;;;;;;;7.88;5.63;;;10.50;99.90;;;;;;2094898;28;20078;-71
2023/05/01 04:16:13;;;;;;;7.95;5.80;;;10.50;99.90;;;;;;2092874;28;20134;-71
2023/05/01 04:17:14;;;;;;;8.43;6.38;;;10.40;99.90;;;;;;2092421;28;20028;-71
2023/05/01 04:18:15;;;;;;;11.70;5.40;;;10.50;99.90;;;;;;2092627;28;20790;-71
2023/05/01 04:19:15;;;;;;;9.13;5.93;;;10.40;99.90;;;;;;2091549;28;20024;-71
2023/05/01 04:20:18;;;;;;;8.52;5.28;;;10.40;99.90;;;;;;2095034;28;20028;-71
2023/05/01 04:21:18;;;;;;;10.48;6.30;;;10.40;99.90;;;;;;2095923;28;20016;-71
2023/05/01 04:22:23;;;;;;;8.98;5.95;;;10.50;99.90;;;;;;2091021;28;20041;-71
2023/05/01 04:23:23;;;;;;;9.63;5.03;;;10.40;99.90;;;;;;2094100;28;20084;-71
2023/05/01 04:24:24;;;;;;;6.68;5.57;;;10.40;99.90;;;;;;2092244;28;20071;-71
2023/05/01 04:25:25;;;;;;;11.02;6.00;;;10.40;99.90;;;;;;2094309;28;20096;-71
2023/05/01 04:26:26;;;;;;;8.45;5.63;;;10.40;99.90;;;;;;2091087;28;20035;-71
2023/05/01 04:27:26;;;;;;;6.15;5.40;;;10.50;99.90;;;;;;2093348;28;20422;-71
2023/05/01 04:28:29;;;;;;;9.00;6.18;;;10.40;99.90;;;;;;2094660;28;20551;-71
2023/05/01 04:29:30;;;;;;;9.23;5.65;;;10.50;99.90;;;;;;2094416;28;20029;-71
2023/05/01 04:30:31;;;;;;;7.18;5.32;;;10.50;99.90;;;;;;2094477;28;20020;-70
2023/05/01 04:31:31;;;;;;;7.95;4.97;;;10.50;99.90;;;;;;2093784;28;20024;-71
2023/05/01 04:32:32;;;;;;;13.77;6.13;;;10.50;99.90;;;;;;2092359;28;20354;-71
2023/05/01 04:33:32;;;;;;;9.57;5.88;;;10.50;99.90;;;;;;2093763;28;20024;-71
2023/05/01 04:34:33;;;;;;;6.15;4.65;;;10.50;99.90;;;;;;2092366;28;20035;-71
2023/05/01 04:35:33;;;;;;;7.10;5.30;;;10.50;99.90;;;;;;2094347;28;20029;-71
2023/05/01 04:36:34;;;;;;;9.10;5.47;;;10.50;99.90;;;;;;2093521;28;20040;-71
2023/05/01 04:37:34;;;;;;;6.78;5.20;;;10.50;99.90;;;;;;2093506;28;20025;-71
2023/05/01 04:38:36;;;;;;;10.10;5.55;;;10.50;99.90;;;;;;2096248;28;20353;-71
2023/05/01 04:39:36;;;;;;;9.10;5.43;;;10.50;99.90;;;;;;2094566;28;20086;-71
2023/05/01 04:40:37;;;;;;;8.85;5.63;;;10.50;99.90;;;;;;2092588;28;20094;-71
2023/05/01 04:41:38;;;;;;;12.80;6.15;;;10.50;99.90;;;;;;2094242;28;20021;-71
2023/05/01 04:42:38;;;;;;;8.90;5.57;;;10.50;99.90;;;;;;2093431;28;20128;-71
2023/05/01 04:43:39;;;;;;;9.23;6.03;;;10.50;99.90;;;;;;2092277;28;20504;-71
2023/05/01 04:44:39;;;;;;;9.77;5.90;;;10.50;99.90;;;;;;2091880;28;20433;-71
2023/05/01 04:45:40;;;;;;;6.95;5.50;;;10.50;99.90;;;;;;2093160;28;20028;-71
2023/05/01 04:46:40;;;;;;;9.50;6.28;;;10.50;99.90;;;;;;2094117;28;20065;-71
2023/05/01 04:47:41;;;;;;;9.77;6.43;;;10.50;99.90;;;;;;2092030;28;20048;-71
2023/05/01 04:48:41;;;;;;;10.15;5.65;;;10.50;99.90;;;;;;2093508;28;20143;-71
2023/05/01 04:49:42;;;;;;;6.55;5.43;;;10.50;99.90;;;;;;2092700;28;20404;-71
2023/05/01 04:50:43;;;;;;;7.40;5.95;;;10.50;99.90;;;;;;2092439;28;20058;-71
2023/05/01 04:51:44;;;;;;;9.43;5.63;;;10.50;99.90;;;;;;2092351;28;20078;-71
2023/05/01 04:52:44;;;;;;;11.70;6.25;;;10.50;99.90;;;;;;2093339;28;20033;-71
2023/05/01 04:53:45;;;;;;;8.85;6.22;;;10.50;99.90;;;;;;2092285;28;20038;-71
2023/05/01 04:54:46;;;;;;;8.73;6.13;;;10.50;99.90;;;;;;2090847;28;20029;-71
2023/05/01 04:55:46;;;;;;;9.85;5.93;;;10.50;99.90;;;;;;2091111;28;20029;-71
2023/05/01 04:56:47;;;;;;;13.38;6.25;;;10.50;99.90;;;;;;2093494;28;20092;-71
2023/05/01 04:57:47;;;;;;;7.32;5.50;;;10.60;99.90;;;;;;2094100;28;20025;-71
2023/05/01 04:58:48;;;;;;;10.30;6.63;;;10.50;99.90;;;;;;2092318;28;20028;-71
2023/05/01 04:59:48;;;;;;;7.55;6.20;;;10.60;99.90;;;;;;2093681;28;20139;-71
2023/05/01 05:00:49;;;;;;;9.95;6.00;;;10.60;99.90;;;;;;2093073;28;20444;-71
2023/05/01 05:01:49;;;;;;;9.15;6.22;;;10.60;99.90;;;;;;2092450;28;20162;-71
2023/05/01 05:02:50;;;;;;;9.88;6.03;;;10.60;99.90;;;;;;2094573;28;20039;-71
2023/05/01 05:03:51;;;;;;;7.95;6.55;;;10.60;99.90;;;;;;2094625;28;20031;-71
2023/05/01 05:04:53;;;;;;;9.18;6.55;;;10.60;99.90;;;;;;2094123;28;20035;-71
2023/05/01 05:05:53;;;;;;;9.52;6.13;;;10.60;99.90;;;;;;2092463;28;20776;-71
2023/05/01 05:06:54;;;;;;;10.45;6.35;;;10.60;99.90;;;;;;2092520;28;20380;-71
2023/05/01 05:07:54;;;;;;;7.57;6.07;;;10.70;99.90;;;;;;2092969;28;20103;-71
2023/05/01 05:08:56;;;;;;;8.45;5.95;;;10.70;99.90;;;;;;2093868;28;20021;-71
2023/05/01 05:09:57;;;;;;;8.18;6.10;;;10.70;99.90;;;;;;2093758;28;20020;-71
2023/05/01 05:11:01;;;;;;;7.68;5.78;;;10.70;99.90;;;;;;2093617;28;20048;-71
2023/05/01 05:12:03;;;;;;;8.75;6.57;;;10.70;99.90;;;;;;2092805;28;20029;-71
2023/05/01 05:13:03;;;;;;;9.05;6.65;;;10.70;99.90;;;;;;2092055;28;20013;-71
2023/05/01 05:14:04;;;;;;;11.75;6.50;;;10.70;99.90;;;;;;2095019;28;20052;-71
2023/05/01 05:15:05;;;;;;;8.95;6.00;;;10.70;99.90;;;;;;2093446;28;20032;-71
2023/05/01 05:16:06;;;;;;;7.55;5.97;;;10.70;99.90;;;;;;2094434;28;20388;-71
2023/05/01 05:17:07;;;;;;;6.93;5.88;;;10.70;99.90;;;;;;2091246;28;20103;-71
2023/05/01 05:18:07;;;;;;;7.82;5.50;;;10.70;99.90;;;;;;2092787;28;20020;-71
2023/05/01 05:19:08;;;;;;;7.28;6.20;;;10.80;99.90;;;;;;2093267;28;20020;-71
2023/05/01 05:20:09;;;;;;;10.13;6.32;;;10.80;99.90;;;;;;2090353;28;20048;-71
2023/05/01 05:21:09;;;;;;;8.05;5.85;;;10.80;99.90;;;;;;2093713;28;20103;-71
2023/05/01 05:22:11;;;;;;;8.95;6.32;;;10.80;99.90;;;;;;2092316;28;20029;-71
2023/05/01 05:23:12;;;;;;;6.85;5.90;;;10.80;99.90;;;;;;2090304;28;20104;-71
2023/05/01 05:24:12;;;;;;;8.45;6.35;;;10.90;99.90;;;;;;2093032;28;21292;-71
2023/05/01 05:25:13;;;;;;;7.72;6.05;;;10.90;99.90;;;;;;2091520;28;20028;-71
2023/05/01 05:26:14;;;;;;;9.40;6.65;;;10.90;99.90;;;;;;2093087;28;20039;-71